METAR Data
IDs: Format: Raw Decoded Include TAF

Data at: 2223 UTC 25 Apr 2019

METAR for:KAUS (Austin/Bergstrom Int, TX, US)
Text:KAUS 252153Z 32008KT 10SM FEW060 31/14 A2985 RMK AO2 SLP102 T03060144
Temperature: 30.6°C ( 87°F)
Dewpoint: 14.4°C ( 58°F) [RH = 37%]
Pressure (altimeter):29.85 inches Hg (1010.9 mb) [Sea level pressure: 1010.2 mb]
Winds:from the NW (320 degrees) at 9 MPH (8 knots; 4.1 m/s)
Visibility:10 or more sm (16+ km)
Ceiling:at least 12,000 feet AGL
Clouds: few clouds at 6000 feet AGL